sensor_id;sensor_type;location;lat;lon;timestamp;temperature;humidity
13589;DHT22;6865;52.552;13.434;2023-05-07T00:01:21;9.10;99.90
13589;DHT22;6865;52.552;13.434;2023-05-07T00:03:48;9.10;99.90
13589;DHT22;6865;52.552;13.434;2023-05-07T00:06:15;9.10;99.90
13589;DHT22;6865;52.552;13.434;2023-05-07T00:08:41;9.10;99.90
13589;DHT22;6865;52.552;13.434;2023-05-07T00:11:08;9.00;99.90
13589;DHT22;6865;52.552;13.434;2023-05-07T00:13:35;9.00;99.90
13589;DHT22;6865;52.552;13.434;2023-05-07T00:16:02;9.00;99.90
13589;DHT22;6865;52.552;13.434;2023-05-07T00:18:29;9.10;99.90
13589;DHT22;6865;52.552;13.434;2023-05-07T00:20:56;9.10;99.90
13589;DHT22;6865;52.552;13.434;2023-05-07T00:23:23;9.10;99.90
13589;DHT22;6865;52.552;13.434;2023-05-07T00:25:49;9.00;99.90
13589;DHT22;6865;52.552;13.434;2023-05-07T00:28:16;9.10;99.90
13589;DHT22;6865;52.552;13.434;2023-05-07T00:30:43;9.10;99.90
13589;DHT22;6865;52.552;13.434;2023-05-07T00:33:09;9.10;99.90
13589;DHT22;6865;52.552;13.434;2023-05-07T00:35:36;9.10;99.90
13589;DHT22;6865;52.552;13.434;2023-05-07T00:38:03;9.10;99.90
13589;DHT22;6865;52.552;13.434;2023-05-07T00:40:29;9.10;99.90
13589;DHT22;6865;52.552;13.434;2023-05-07T00:42:56;9.00;99.90
13589;DHT22;6865;52.552;13.434;2023-05-07T00:45:27;9.00;99.90
13589;DHT22;6865;52.552;13.434;2023-05-07T00:48:01;9.00;99.90
13589;DHT22;6865;52.552;13.434;2023-05-07T00:50:29;9.00;99.90
13589;DHT22;6865;52.552;13.434;2023-05-07T00:52:56;9.00;99.90
13589;DHT22;6865;52.552;13.434;2023-05-07T00:55:23;9.10;99.90
13589;DHT22;6865;52.552;13.434;2023-05-07T00:57:50;9.10;99.90
13589;DHT22;6865;52.552;13.434;2023-05-07T01:02:51;9.10;99.90
13589;DHT22;6865;52.552;13.434;2023-05-07T01:05:20;9.10;99.90
13589;DHT22;6865;52.552;13.434;2023-05-07T01:07:50;9.10;99.90
13589;DHT22;6865;52.552;13.434;2023-05-07T01:10:17;9.10;99.90
13589;DHT22;6865;52.552;13.434;2023-05-07T01:12:44;9.10;99.90
13589;DHT22;6865;52.552;13.434;2023-05-07T01:15:12;9.10;99.90
13589;DHT22;6865;52.552;13.434;2023-05-07T01:17:41;9.10;99.90
13589;DHT22;6865;52.552;13.434;2023-05-07T01:20:08;9.10;99.90
13589;DHT22;6865;52.552;13.434;2023-05-07T01:22:38;9.10;99.90
13589;DHT22;6865;52.552;13.434;2023-05-07T01:25:06;9.10;99.90
13589;DHT22;6865;52.552;13.434;2023-05-07T01:27:33;9.10;99.90
13589;DHT22;6865;52.552;13.434;2023-05-07T01:30:01;9.10;99.90
13589;DHT22;6865;52.552;13.434;2023-05-07T01:32:58;9.10;99.90
13589;DHT22;6865;52.552;13.434;2023-05-07T01:35:40;9.10;99.90
13589;DHT22;6865;52.552;13.434;2023-05-07T01:38:08;8.90;99.90
13589;DHT22;6865;52.552;13.434;2023-05-07T01:40:34;9.10;99.90
13589;DHT22;6865;52.552;13.434;2023-05-07T01:43:02;9.10;99.90
13589;DHT22;6865;52.552;13.434;2023-05-07T01:45:30;9.10;99.90
13589;DHT22;6865;52.552;13.434;2023-05-07T01:48:02;9.10;99.90
13589;DHT22;6865;52.552;13.434;2023-05-07T01:50:30;9.10;99.90
13589;DHT22;6865;52.552;13.434;2023-05-07T01:52:58;9.10;99.90
13589;DHT22;6865;52.552;13.434;2023-05-07T01:55:24;9.10;99.90
13589;DHT22;6865;52.552;13.434;2023-05-07T01:57:51;9.00;99.90
13589;DHT22;6865;52.552;13.434;2023-05-07T02:00:18;9.00;99.90
13589;DHT22;6865;52.552;13.434;2023-05-07T02:02:45;9.00;99.90
13589;DHT22;6865;52.552;13.434;2023-05-07T02:05:12;9.10;99.90
13589;DHT22;6865;52.552;13.434;2023-05-07T02:07:38;9.40;99.90
13589;DHT22;6865;52.552;13.434;2023-05-07T02:10:05;9.10;99.90
13589;DHT22;6865;52.552;13.434;2023-05-07T02:12:32;9.10;99.90
13589;DHT22;6865;52.552;13.434;2023-05-07T02:15:00;9.10;99.90
13589;DHT22;6865;52.552;13.434;2023-05-07T02:17:26;9.00;99.90
13589;DHT22;6865;52.552;13.434;2023-05-07T02:19:53;9.00;99.90
13589;DHT22;6865;52.552;13.434;2023-05-07T02:22:19;9.00;99.90
13589;DHT22;6865;52.552;13.434;2023-05-07T02:24:46;9.10;99.90
13589;DHT22;6865;52.552;13.434;2023-05-07T02:27:13;9.10;99.90
13589;DHT22;6865;52.552;13.434;2023-05-07T02:29:39;9.10;99.90
13589;DHT22;6865;52.552;13.434;2023-05-07T02:32:06;8.80;99.90
13589;DHT22;6865;52.552;13.434;2023-05-07T02:34:33;9.10;99.90
13589;DHT22;6865;52.552;13.434;2023-05-07T02:36:59;9.10;99.90
13589;DHT22;6865;52.552;13.434;2023-05-07T02:39:26;9.10;99.90
13589;DHT22;6865;52.552;13.434;2023-05-07T02:41:52;9.10;99.90
13589;DHT22;6865;52.552;13.434;2023-05-07T02:44:19;9.10;99.90
13589;DHT22;6865;52.552;13.434;2023-05-07T02:46:46;9.00;99.90
13589;DHT22;6865;52.552;13.434;2023-05-07T02:49:12;9.00;99.90
13589;DHT22;6865;52.552;13.434;2023-05-07T02:51:39;9.00;99.90
13589;DHT22;6865;52.552;13.434;2023-05-07T02:54:05;9.00;99.90
13589;DHT22;6865;52.552;13.434;2023-05-07T02:56:33;9.00;99.90
13589;DHT22;6865;52.552;13.434;2023-05-07T02:58:59;9.00;99.90
13589;DHT22;6865;52.552;13.434;2023-05-07T03:01:26;9.00;99.90
13589;DHT22;6865;52.552;13.434;2023-05-07T03:03:54;9.00;99.90
13589;DHT22;6865;52.552;13.434;2023-05-07T03:06:20;9.00;99.90
13589;DHT22;6865;52.552;13.434;2023-05-07T03:08:47;9.10;99.90
13589;DHT22;6865;52.552;13.434;2023-05-07T03:11:14;9.10;99.90
13589;DHT22;6865;52.552;13.434;2023-05-07T03:13:41;9.10;99.90
13589;DHT22;6865;52.552;13.434;2023-05-07T03:16:07;10.10;99.90
13589;DHT22;6865;52.552;13.434;2023-05-07T03:18:34;9.00;99.90
13589;DHT22;6865;52.552;13.434;2023-05-07T03:21:01;9.00;99.90
13589;DHT22;6865;52.552;13.434;2023-05-07T03:23:27;9.00;99.90
13589;DHT22;6865;52.552;13.434;2023-05-07T03:25:54;9.00;99.90
13589;DHT22;6865;52.552;13.434;2023-05-07T03:28:21;9.00;99.90
13589;DHT22;6865;52.552;13.434;2023-05-07T03:30:47;9.00;99.90
13589;DHT22;6865;52.552;13.434;2023-05-07T03:33:14;9.00;99.90
13589;DHT22;6865;52.552;13.434;2023-05-07T03:35:40;8.90;99.90
13589;DHT22;6865;52.552;13.434;2023-05-07T03:38:07;9.00;99.90
13589;DHT22;6865;52.552;13.434;2023-05-07T03:40:34;9.00;99.90
13589;DHT22;6865;52.552;13.434;2023-05-07T03:43:01;9.00;99.90
13589;DHT22;6865;52.552;13.434;2023-05-07T03:45:27;8.90;99.90
13589;DHT22;6865;52.552;13.434;2023-05-07T03:47:54;8.90;99.90
13589;DHT22;6865;52.552;13.434;2023-05-07T03:50:21;8.90;99.90
13589;DHT22;6865;52.552;13.434;2023-05-07T03:52:47;8.90;99.90
13589;DHT22;6865;52.552;13.434;2023-05-07T03:55:14;8.90;99.90
13589;DHT22;6865;52.552;13.434;2023-05-07T03:57:41;8.80;99.90
13589;DHT22;6865;52.552;13.434;2023-05-07T04:00:07;8.80;99.90
13589;DHT22;6865;52.552;13.434;2023-05-07T04:02:35;8.80;99.90
13589;DHT22;6865;52.552;13.434;2023-05-07T04:05:02;8.70;99.90
13589;DHT22;6865;52.552;13.434;2023-05-07T04:07:29;8.70;99.90
13589;DHT22;6865;52.552;13.434;2023-05-07T04:09:55;8.70;99.90
13589;DHT22;6865;52.552;13.434;2023-05-07T04:12:22;8.80;99.90
13589;DHT22;6865;52.552;13.434;2023-05-07T04:14:48;8.80;99.90
13589;DHT22;6865;52.552;13.434;2023-05-07T04:17:15;8.70;99.90
13589;DHT22;6865;52.552;13.434;2023-05-07T04:19:41;8.80;99.90
13589;DHT22;6865;52.552;13.434;2023-05-07T04:22:11;8.80;99.90
13589;DHT22;6865;52.552;13.434;2023-05-07T04:24:38;8.80;99.90
13589;DHT22;6865;52.552;13.434;2023-05-07T04:27:05;8.80;99.90
13589;DHT22;6865;52.552;13.434;2023-05-07T04:29:32;8.80;99.90
13589;DHT22;6865;52.552;13.434;2023-05-07T04:31:59;8.80;99.90
13589;DHT22;6865;52.552;13.434;2023-05-07T04:34:26;8.80;99.90
13589;DHT22;6865;52.552;13.434;2023-05-07T04:36:53;8.90;99.90
13589;DHT22;6865;52.552;13.434;2023-05-07T04:39:19;8.80;99.90
13589;DHT22;6865;52.552;13.434;2023-05-07T04:41:46;8.90;99.90
13589;DHT22;6865;52.552;13.434;2023-05-07T04:44:14;8.90;99.90
13589;DHT22;6865;52.552;13.434;2023-05-07T04:46:40;9.00;99.90
13589;DHT22;6865;52.552;13.434;2023-05-07T04:49:07;9.00;99.90
13589;DHT22;6865;52.552;13.434;2023-05-07T04:51:34;9.00;99.90
13589;DHT22;6865;52.552;13.434;2023-05-07T04:54:00;9.00;99.90
13589;DHT22;6865;52.552;13.434;2023-05-07T04:56:30;9.00;99.90
13589;DHT22;6865;52.552;13.434;2023-05-07T04:58:56;9.10;99.90
13589;DHT22;6865;52.552;13.434;2023-05-07T05:01:23;9.10;99.90
13589;DHT22;6865;52.552;13.434;2023-05-07T05:03:50;9.00;99.90
13589;DHT22;6865;52.552;13.434;2023-05-07T05:06:16;9.10;99.90
13589;DHT22;6865;52.552;13.434;2023-05-07T05:08:43;9.10;99.90
13589;DHT22;6865;52.552;13.434;2023-05-07T05:11:10;9.20;99.90
13589;DHT22;6865;52.552;13.434;2023-05-07T05:13:36;9.30;99.90
13589;DHT22;6865;52.552;13.434;2023-05-07T05:16:03;9.30;99.90
13589;DHT22;6865;52.552;13.434;2023-05-07T05:18:30;9.50;99.90
13589;DHT22;6865;52.552;13.434;2023-05-07T05:20:57;9.50;99.90
13589;DHT22;6865;52.552;13.434;2023-05-07T05:23:23;9.60;99.90
13589;DHT22;6865;52.552;13.434;2023-05-07T05:25:55;9.60;99.90
13589;DHT22;6865;52.552;13.434;2023-05-07T05:28:22;9.60;99.90
13589;DHT22;6865;52.552;13.434;2023-05-07T05:30:49;9.70;99.90
13589;DHT22;6865;52.552;13.434;2023-05-07T05:33:16;9.60;99.90
13589;DHT22;6865;52.552;13.434;2023-05-07T05:35:43;9.60;99.90
13589;DHT22;6865;52.552;13.434;2023-05-07T05:38:09;9.50;99.90
13589;DHT22;6865;52.552;13.434;2023-05-07T05:40:36;9.50;99.90
13589;DHT22;6865;52.552;13.434;2023-05-07T05:43:03;9.50;99.90
13589;DHT22;6865;52.552;13.434;2023-05-07T05:45:29;9.60;99.90
13589;DHT22;6865;52.552;13.434;2023-05-07T05:47:56;9.70;99.90
13589;DHT22;6865;52.552;13.434;2023-05-07T05:50:23;9.80;99.90
13589;DHT22;6865;52.552;13.434;2023-05-07T05:52:50;9.80;99.90
13589;DHT22;6865;52.552;13.434;2023-05-07T05:55:17;9.00;99.90
13589;DHT22;6865;52.552;13.434;2023-05-07T05:57:43;10.00;99.90
13589;DHT22;6865;52.552;13.434;2023-05-07T06:00:10;10.20;99.90
13589;DHT22;6865;52.552;13.434;2023-05-07T06:02:38;10.20;99.90
13589;DHT22;6865;52.552;13.434;2023-05-07T06:05:05;10.30;99.90
13589;DHT22;6865;52.552;13.434;2023-05-07T06:07:32;10.40;99.90
13589;DHT22;6865;52.552;13.434;2023-05-07T06:09:58;10.40;99.90
13589;DHT22;6865;52.552;13.434;2023-05-07T06:12:25;10.50;99.90
13589;DHT22;6865;52.552;13.434;2023-05-07T06:14:52;10.80;99.90
13589;DHT22;6865;52.552;13.434;2023-05-07T06:17:18;10.70;99.90
13589;DHT22;6865;52.552;13.434;2023-05-07T06:19:47;10.40;99.90
13589;DHT22;6865;52.552;13.434;2023-05-07T06:22:14;10.30;99.90
13589;DHT22;6865;52.552;13.434;2023-05-07T06:24:40;10.20;99.90
13589;DHT22;6865;52.552;13.434;2023-05-07T06:27:07;10.20;99.90
13589;DHT22;6865;52.552;13.434;2023-05-07T06:29:34;10.20;99.90
13589;DHT22;6865;52.552;13.434;2023-05-07T06:32:07;10.30;99.90
13589;DHT22;6865;52.552;13.434;2023-05-07T06:34:34;10.30;99.90
13589;DHT22;6865;52.552;13.434;2023-05-07T06:37:01;10.40;99.90
13589;DHT22;6865;52.552;13.434;2023-05-07T06:39:28;10.40;99.90
13589;DHT22;6865;52.552;13.434;2023-05-07T06:41:55;10.40;99.90
13589;DHT22;6865;52.552;13.434;2023-05-07T06:44:22;10.50;99.90
13589;DHT22;6865;52.552;13.434;2023-05-07T06:46:48;10.50;99.90
13589;DHT22;6865;52.552;13.434;2023-05-07T06:49:15;10.50;99.90
13589;DHT22;6865;52.552;13.434;2023-05-07T06:51:42;10.50;99.90
13589;DHT22;6865;52.552;13.434;2023-05-07T06:54:09;10.40;99.90
13589;DHT22;6865;52.552;13.434;2023-05-07T06:56:35;10.50;99.90
13589;DHT22;6865;52.552;13.434;2023-05-07T06:59:02;10.70;99.90
13589;DHT22;6865;52.552;13.434;2023-05-07T07:01:29;11.00;99.90
13589;DHT22;6865;52.552;13.434;2023-05-07T07:03:56;11.30;99.90
13589;DHT22;6865;52.552;13.434;2023-05-07T07:06:23;11.60;99.90
13589;DHT22;6865;52.552;13.434;2023-05-07T07:08:49;11.70;99.90
13589;DHT22;6865;52.552;13.434;2023-05-07T07:11:16;11.80;99.90
13589;DHT22;6865;52.552;13.434;2023-05-07T07:13:43;12.00;99.90
13589;DHT22;6865;52.552;13.434;2023-05-07T07:16:09;12.20;99.90
13589;DHT22;6865;52.552;13.434;2023-05-07T07:18:36;12.50;99.90
13589;DHT22;6865;52.552;13.434;2023-05-07T07:21:03;12.60;99.90
13589;DHT22;6865;52.552;13.434;2023-05-07T07:23:30;12.40;99.90
13589;DHT22;6865;52.552;13.434;2023-05-07T07:25:56;12.10;99.90
13589;DHT22;6865;52.552;13.434;2023-05-07T07:28:26;12.10;99.90
13589;DHT22;6865;52.552;13.434;2023-05-07T07:30:53;12.10;99.90
13589;DHT22;6865;52.552;13.434;2023-05-07T07:33:20;12.30;99.90
13589;DHT22;6865;52.552;13.434;2023-05-07T07:35:52;12.60;99.90
13589;DHT22;6865;52.552;13.434;2023-05-07T07:38:19;12.80;99.90
13589;DHT22;6865;52.552;13.434;2023-05-07T07:40:47;12.70;99.90
13589;DHT22;6865;52.552;13.434;2023-05-07T07:43:14;12.80;99.90
13589;DHT22;6865;52.552;13.434;2023-05-07T07:45:40;13.20;99.90
13589;DHT22;6865;52.552;13.434;2023-05-07T07:48:07;13.60;99.90
13589;DHT22;6865;52.552;13.434;2023-05-07T07:50:34;13.90;99.90
13589;DHT22;6865;52.552;13.434;2023-05-07T07:53:11;14.00;99.90
13589;DHT22;6865;52.552;13.434;2023-05-07T07:55:39;13.60;99.90
13589;DHT22;6865;52.552;13.434;2023-05-07T07:58:06;13.20;99.90
13589;DHT22;6865;52.552;13.434;2023-05-07T08:00:33;12.70;99.90
13589;DHT22;6865;52.552;13.434;2023-05-07T08:02:59;12.50;99.90
13589;DHT22;6865;52.552;13.434;2023-05-07T08:05:27;12.50;99.90
13589;DHT22;6865;52.552;13.434;2023-05-07T08:07:54;12.50;99.90
13589;DHT22;6865;52.552;13.434;2023-05-07T08:10:21;12.50;99.90
13589;DHT22;6865;52.552;13.434;2023-05-07T08:12:49;12.50;99.90
13589;DHT22;6865;52.552;13.434;2023-05-07T08:15:17;12.60;99.90
13589;DHT22;6865;52.552;13.434;2023-05-07T08:17:44;12.80;99.90
13589;DHT22;6865;52.552;13.434;2023-05-07T08:20:10;13.00;99.90
13589;DHT22;6865;52.552;13.434;2023-05-07T08:22:37;12.90;99.90
13589;DHT22;6865;52.552;13.434;2023-05-07T08:25:04;12.90;99.90
13589;DHT22;6865;52.552;13.434;2023-05-07T08:27:31;12.90;99.90
13589;DHT22;6865;52.552;13.434;2023-05-07T08:29:57;13.10;99.90
13589;DHT22;6865;52.552;13.434;2023-05-07T08:32:24;13.20;99.90
13589;DHT22;6865;52.552;13.434;2023-05-07T08:34:51;13.20;99.90
13589;DHT22;6865;52.552;13.434;2023-05-07T08:37:18;13.20;99.90
13589;DHT22;6865;52.552;13.434;2023-05-07T08:39:45;13.30;99.90
13589;DHT22;6865;52.552;13.434;2023-05-07T08:42:12;13.40;99.90
13589;DHT22;6865;52.552;13.434;2023-05-07T08:44:43;13.60;99.90
13589;DHT22;6865;52.552;13.434;2023-05-07T08:47:13;13.80;99.90
13589;DHT22;6865;52.552;13.434;2023-05-07T08:49:39;14.00;99.90
13589;DHT22;6865;52.552;13.434;2023-05-07T08:52:06;14.00;99.90
13589;DHT22;6865;52.552;13.434;2023-05-07T08:54:37;14.10;99.90
13589;DHT22;6865;52.552;13.434;2023-05-07T08:57:04;14.30;99.90
13589;DHT22;6865;52.552;13.434;2023-05-07T08:59:30;14.30;99.90
13589;DHT22;6865;52.552;13.434;2023-05-07T09:01:57;14.40;99.90
13589;DHT22;6865;52.552;13.434;2023-05-07T09:04:24;14.40;99.90
13589;DHT22;6865;52.552;13.434;2023-05-07T09:06:53;14.70;99.90
13589;DHT22;6865;52.552;13.434;2023-05-07T09:09:22;14.90;99.90
13589;DHT22;6865;52.552;13.434;2023-05-07T09:11:48;15.00;99.90
13589;DHT22;6865;52.552;13.434;2023-05-07T09:14:22;15.20;99.90
13589;DHT22;6865;52.552;13.434;2023-05-07T09:16:49;15.30;99.90
13589;DHT22;6865;52.552;13.434;2023-05-07T09:19:23;15.10;99.90
13589;DHT22;6865;52.552;13.434;2023-05-07T09:22:01;14.70;99.90
13589;DHT22;6865;52.552;13.434;2023-05-07T09:24:29;14.50;99.90
13589;DHT22;6865;52.552;13.434;2023-05-07T09:27:01;14.10;99.90
13589;DHT22;6865;52.552;13.434;2023-05-07T09:29:29;13.90;99.90
13589;DHT22;6865;52.552;13.434;2023-05-07T09:31:56;13.90;99.90
13589;DHT22;6865;52.552;13.434;2023-05-07T09:34:23;14.20;99.90
13589;DHT22;6865;52.552;13.434;2023-05-07T09:36:50;14.30;99.90
13589;DHT22;6865;52.552;13.434;2023-05-07T09:39:17;14.10;99.90
13589;DHT22;6865;52.552;13.434;2023-05-07T09:41:45;14.00;99.90
13589;DHT22;6865;52.552;13.434;2023-05-07T09:44:13;14.10;99.90
13589;DHT22;6865;52.552;13.434;2023-05-07T09:46:43;14.00;99.90
13589;DHT22;6865;52.552;13.434;2023-05-07T09:49:18;14.20;99.90
13589;DHT22;6865;52.552;13.434;2023-05-07T09:51:51;14.30;99.90
13589;DHT22;6865;52.552;13.434;2023-05-07T09:54:18;14.50;99.90
13589;DHT22;6865;52.552;13.434;2023-05-07T09:56:45;14.70;99.90
13589;DHT22;6865;52.552;13.434;2023-05-07T09:59:16;14.70;99.90
13589;DHT22;6865;52.552;13.434;2023-05-07T10:01:44;14.40;99.90
13589;DHT22;6865;52.552;13.434;2023-05-07T10:04:11;14.20;99.90
13589;DHT22;6865;52.552;13.434;2023-05-07T10:06:38;14.10;99.90
13589;DHT22;6865;52.552;13.434;2023-05-07T10:09:05;14.10;99.90
13589;DHT22;6865;52.552;13.434;2023-05-07T10:11:36;14.10;99.90
13589;DHT22;6865;52.552;13.434;2023-05-07T10:14:03;14.00;99.90
13589;DHT22;6865;52.552;13.434;2023-05-07T10:16:33;13.90;99.90
13589;DHT22;6865;52.552;13.434;2023-05-07T10:19:06;13.80;99.90
13589;DHT22;6865;52.552;13.434;2023-05-07T10:21:36;13.80;99.90
13589;DHT22;6865;52.552;13.434;2023-05-07T10:24:05;14.00;99.90
13589;DHT22;6865;52.552;13.434;2023-05-07T10:26:37;13.90;99.90
13589;DHT22;6865;52.552;13.434;2023-05-07T10:29:12;13.90;99.90
13589;DHT22;6865;52.552;13.434;2023-05-07T10:32:05;14.00;99.90
13589;DHT22;6865;52.552;13.434;2023-05-07T10:34:40;14.00;99.90
13589;DHT22;6865;52.552;13.434;2023-05-07T10:37:09;14.10;99.90
13589;DHT22;6865;52.552;13.434;2023-05-07T10:39:37;14.30;99.90
13589;DHT22;6865;52.552;13.434;2023-05-07T10:42:11;14.50;99.90
13589;DHT22;6865;52.552;13.434;2023-05-07T10:44:38;14.30;99.90
13589;DHT22;6865;52.552;13.434;2023-05-07T10:47:14;14.90;99.90
13589;DHT22;6865;52.552;13.434;2023-05-07T10:52:19;14.80;99.20
13589;DHT22;6865;52.552;13.434;2023-05-07T10:54:47;14.90;99.20
13589;DHT22;6865;52.552;13.434;2023-05-07T10:57:34;15.10;99.10
13589;DHT22;6865;52.552;13.434;2023-05-07T11:00:03;14.90;98.80
13589;DHT22;6865;52.552;13.434;2023-05-07T11:05:31;14.90;98.90
13589;DHT22;6865;52.552;13.434;2023-05-07T11:08:02;15.60;99.20
13589;DHT22;6865;52.552;13.434;2023-05-07T11:10:49;15.50;97.80
13589;DHT22;6865;52.552;13.434;2023-05-07T11:13:46;15.60;96.80
13589;DHT22;6865;52.552;13.434;2023-05-07T11:16:21;15.80;96.50
13589;DHT22;6865;52.552;13.434;2023-05-07T11:18:55;15.80;95.80
13589;DHT22;6865;52.552;13.434;2023-05-07T11:21:33;15.70;95.30
13589;DHT22;6865;52.552;13.434;2023-05-07T11:24:00;15.60;95.60
13589;DHT22;6865;52.552;13.434;2023-05-07T11:26:29;15.70;96.20
13589;DHT22;6865;52.552;13.434;2023-05-07T11:28:57;15.70;95.10
13589;DHT22;6865;52.552;13.434;2023-05-07T11:31:27;15.80;95.80
13589;DHT22;6865;52.552;13.434;2023-05-07T11:33:55;16.10;95.40
13589;DHT22;6865;52.552;13.434;2023-05-07T11:36:23;16.40;94.20
13589;DHT22;6865;52.552;13.434;2023-05-07T11:38:50;16.40;94.40
13589;DHT22;6865;52.552;13.434;2023-05-07T11:41:17;16.60;92.70
13589;DHT22;6865;52.552;13.434;2023-05-07T11:43:56;16.50;92.00
13589;DHT22;6865;52.552;13.434;2023-05-07T11:46:24;16.70;92.90
13589;DHT22;6865;52.552;13.434;2023-05-07T11:48:51;16.70;92.70
13589;DHT22;6865;52.552;13.434;2023-05-07T11:51:22;16.70;92.20
13589;DHT22;6865;52.552;13.434;2023-05-07T11:53:51;16.80;92.10
13589;DHT22;6865;52.552;13.434;2023-05-07T11:56:19;16.90;91.80
13589;DHT22;6865;52.552;13.434;2023-05-07T11:58:46;16.80;91.50
13589;DHT22;6865;52.552;13.434;2023-05-07T12:01:14;16.60;91.80
13589;DHT22;6865;52.552;13.434;2023-05-07T12:03:43;16.70;91.50
13589;DHT22;6865;52.552;13.434;2023-05-07T12:06:16;16.50;92.10
13589;DHT22;6865;52.552;13.434;2023-05-07T12:08:44;16.60;92.10
13589;DHT22;6865;52.552;13.434;2023-05-07T12:11:23;16.30;91.90
13589;DHT22;6865;52.552;13.434;2023-05-07T12:13:50;16.90;91.40
13589;DHT22;6865;52.552;13.434;2023-05-07T12:16:17;16.50;91.40
13589;DHT22;6865;52.552;13.434;2023-05-07T12:18:45;16.30;91.00
13589;DHT22;6865;52.552;13.434;2023-05-07T12:21:11;17.30;91.60
13589;DHT22;6865;52.552;13.434;2023-05-07T12:23:39;16.10;91.70
13589;DHT22;6865;52.552;13.434;2023-05-07T12:26:06;16.00;91.70
13589;DHT22;6865;52.552;13.434;2023-05-07T12:28:38;15.80;92.00
13589;DHT22;6865;52.552;13.434;2023-05-07T12:31:06;16.30;92.30
13589;DHT22;6865;52.552;13.434;2023-05-07T12:33:34;16.40;90.80
13589;DHT22;6865;52.552;13.434;2023-05-07T12:36:04;16.30;90.70
13589;DHT22;6865;52.552;13.434;2023-05-07T12:38:35;16.30;91.20
13589;DHT22;6865;52.552;13.434;2023-05-07T12:41:03;16.40;91.00
13589;DHT22;6865;52.552;13.434;2023-05-07T12:43:30;16.60;90.70
13589;DHT22;6865;52.552;13.434;2023-05-07T12:45:59;16.60;90.40
13589;DHT22;6865;52.552;13.434;2023-05-07T12:48:26;16.80;90.70
13589;DHT22;6865;52.552;13.434;2023-05-07T12:50:54;16.80;88.40
13589;DHT22;6865;52.552;13.434;2023-05-07T12:53:23;16.70;88.70
13589;DHT22;6865;52.552;13.434;2023-05-07T12:55:52;16.70;88.60
13589;DHT22;6865;52.552;13.434;2023-05-07T12:58:22;16.50;87.60
13589;DHT22;6865;52.552;13.434;2023-05-07T13:00:50;16.50;89.00
13589;DHT22;6865;52.552;13.434;2023-05-07T13:03:32;16.60;88.60
13589;DHT22;6865;52.552;13.434;2023-05-07T13:06:07;16.70;89.10
13589;DHT22;6865;52.552;13.434;2023-05-07T13:08:38;16.80;88.30
13589;DHT22;6865;52.552;13.434;2023-05-07T13:11:07;16.90;87.90
13589;DHT22;6865;52.552;13.434;2023-05-07T13:13:35;16.70;88.60
13589;DHT22;6865;52.552;13.434;2023-05-07T13:16:03;16.70;87.10
13589;DHT22;6865;52.552;13.434;2023-05-07T13:18:31;16.50;86.60
13589;DHT22;6865;52.552;13.434;2023-05-07T13:20:58;16.50;88.00
13589;DHT22;6865;52.552;13.434;2023-05-07T13:23:26;16.50;88.20
13589;DHT22;6865;52.552;13.434;2023-05-07T13:25:53;16.40;87.80
13589;DHT22;6865;52.552;13.434;2023-05-07T13:28:24;16.40;86.20
13589;DHT22;6865;52.552;13.434;2023-05-07T13:30:52;16.30;85.30
13589;DHT22;6865;52.552;13.434;2023-05-07T13:33:19;16.50;85.60
13589;DHT22;6865;52.552;13.434;2023-05-07T13:35:45;16.60;84.60
13589;DHT22;6865;52.552;13.434;2023-05-07T13:38:12;16.60;84.40
13589;DHT22;6865;52.552;13.434;2023-05-07T13:40:39;16.60;84.40
13589;DHT22;6865;52.552;13.434;2023-05-07T13:43:06;16.90;84.70
13589;DHT22;6865;52.552;13.434;2023-05-07T13:45:32;16.50;84.50
13589;DHT22;6865;52.552;13.434;2023-05-07T13:48:00;16.50;85.70
13589;DHT22;6865;52.552;13.434;2023-05-07T13:50:27;16.50;85.60
13589;DHT22;6865;52.552;13.434;2023-05-07T13:52:57;16.70;85.00
13589;DHT22;6865;52.552;13.434;2023-05-07T13:55:24;16.80;83.90
13589;DHT22;6865;52.552;13.434;2023-05-07T13:57:59;16.80;83.90
13589;DHT22;6865;52.552;13.434;2023-05-07T14:00:27;16.90;84.60
13589;DHT22;6865;52.552;13.434;2023-05-07T14:02:55;16.90;84.70
13589;DHT22;6865;52.552;13.434;2023-05-07T14:05:22;16.70;84.00
13589;DHT22;6865;52.552;13.434;2023-05-07T14:07:57;16.50;84.70
13589;DHT22;6865;52.552;13.434;2023-05-07T14:10:24;16.50;85.90
13589;DHT22;6865;52.552;13.434;2023-05-07T14:12:51;16.60;86.00
13589;DHT22;6865;52.552;13.434;2023-05-07T14:15:19;16.70;84.20
13589;DHT22;6865;52.552;13.434;2023-05-07T14:17:46;16.80;84.50
13589;DHT22;6865;52.552;13.434;2023-05-07T14:20:13;17.00;82.90
13589;DHT22;6865;52.552;13.434;2023-05-07T14:22:40;17.10;82.30
13589;DHT22;6865;52.552;13.434;2023-05-07T14:25:08;17.30;82.00
13589;DHT22;6865;52.552;13.434;2023-05-07T14:27:36;17.40;82.10
13589;DHT22;6865;52.552;13.434;2023-05-07T14:30:03;17.50;82.30
13589;DHT22;6865;52.552;13.434;2023-05-07T14:32:30;17.50;81.20
13589;DHT22;6865;52.552;13.434;2023-05-07T14:34:57;17.30;82.50
13589;DHT22;6865;52.552;13.434;2023-05-07T14:37:24;17.10;83.00
13589;DHT22;6865;52.552;13.434;2023-05-07T14:39:50;16.90;83.40
13589;DHT22;6865;52.552;13.434;2023-05-07T14:42:17;16.80;84.30
13589;DHT22;6865;52.552;13.434;2023-05-07T14:44:44;16.80;85.20
13589;DHT22;6865;52.552;13.434;2023-05-07T14:47:13;16.70;84.40
13589;DHT22;6865;52.552;13.434;2023-05-07T14:49:44;16.50;84.70
13589;DHT22;6865;52.552;13.434;2023-05-07T14:52:11;16.30;85.40
13589;DHT22;6865;52.552;13.434;2023-05-07T14:54:38;16.10;86.60
13589;DHT22;6865;52.552;13.434;2023-05-07T14:57:06;16.00;88.00
13589;DHT22;6865;52.552;13.434;2023-05-07T14:59:33;16.00;87.50
13589;DHT22;6865;52.552;13.434;2023-05-07T15:02:03;16.00;87.50
13589;DHT22;6865;52.552;13.434;2023-05-07T15:04:33;15.80;87.50
13589;DHT22;6865;52.552;13.434;2023-05-07T15:07:00;16.10;87.30
13589;DHT22;6865;52.552;13.434;2023-05-07T15:09:26;16.20;87.60
13589;DHT22;6865;52.552;13.434;2023-05-07T15:11:54;16.20;87.60
13589;DHT22;6865;52.552;13.434;2023-05-07T15:14:23;16.30;87.50
13589;DHT22;6865;52.552;13.434;2023-05-07T15:16:50;17.10;86.70
13589;DHT22;6865;52.552;13.434;2023-05-07T15:19:16;16.40;85.40
13589;DHT22;6865;52.552;13.434;2023-05-07T15:21:43;16.50;84.90
13589;DHT22;6865;52.552;13.434;2023-05-07T15:24:13;16.50;84.70
13589;DHT22;6865;52.552;13.434;2023-05-07T15:26:40;16.60;85.20
13589;DHT22;6865;52.552;13.434;2023-05-07T15:29:06;16.70;83.10
13589;DHT22;6865;52.552;13.434;2023-05-07T15:31:36;16.80;82.50
13589;DHT22;6865;52.552;13.434;2023-05-07T15:34:06;16.80;83.10
13589;DHT22;6865;52.552;13.434;2023-05-07T15:36:33;16.90;83.40
13589;DHT22;6865;52.552;13.434;2023-05-07T15:39:00;16.80;82.60
13589;DHT22;6865;52.552;13.434;2023-05-07T15:41:28;16.70;81.00
13589;DHT22;6865;52.552;13.434;2023-05-07T15:43:55;16.50;81.60
13589;DHT22;6865;52.552;13.434;2023-05-07T15:46:23;16.30;82.70
13589;DHT22;6865;52.552;13.434;2023-05-07T15:48:52;16.10;83.50
13589;DHT22;6865;52.552;13.434;2023-05-07T15:51:19;16.00;84.40